Terminal Aerodrome Forecast
Issued by NWS

Home | Current Version | Previous Version | Text Only | Print | Product List | Glossary On
Versions: 1 2 3 4 5 6 7 8 9 10 11 12 13 14
000
FTUS43 KTOP 272343 CCA
TAFMHK
TAF COR
KMHK 272343Z 2800/2824 17009KT P6SM SCT200
     FM280300 17009KT P6SM BKN040 WS020/19040KT
     FM280500 18010KT P6SM BKN018 WS020/19040KT
     FM281000 20011KT P6SM BKN050
     FM281700 22010G18KT P6SM BKN120=

USA.gov is the U.S. government's official web portal to all federal, state and local government web resources and services.